sensor_id;sensor_type;location;lat;lon;timestamp;pressure;altitude;pressure_sealevel;temperature;humidity
20860;BME280;10590;48.154;11.514;2023-05-01T00:01:28;95569.16;;;9.83;60.78
20860;BME280;10590;48.154;11.514;2023-05-01T00:06:51;95563.69;;;9.80;60.92
20860;BME280;10590;48.154;11.514;2023-05-01T00:12:13;95562.59;;;9.98;60.34
20860;BME280;10590;48.154;11.514;2023-05-01T00:17:35;95545.19;;;9.83;61.26
20860;BME280;10590;48.154;11.514;2023-05-01T00:22:58;95540.19;;;9.90;61.30
20860;BME280;10590;48.154;11.514;2023-05-01T00:28:20;95538.28;;;9.91;60.87
20860;BME280;10590;48.154;11.514;2023-05-01T00:33:42;95538.44;;;9.69;61.37
20860;BME280;10590;48.154;11.514;2023-05-01T00:39:05;95530.59;;;9.64;62.13
20860;BME280;10590;48.154;11.514;2023-05-01T00:44:28;95534.34;;;9.71;61.34
20860;BME280;10590;48.154;11.514;2023-05-01T00:49:51;95529.31;;;9.61;62.17
20860;BME280;10590;48.154;11.514;2023-05-01T00:55:15;95522.53;;;9.46;62.93
20860;BME280;10590;48.154;11.514;2023-05-01T01:00:37;95521.00;;;9.54;62.76
20860;BME280;10590;48.154;11.514;2023-05-01T01:06:14;95529.00;;;9.54;62.57
20860;BME280;10590;48.154;11.514;2023-05-01T01:11:50;95524.63;;;9.67;62.75
20860;BME280;10590;48.154;11.514;2023-05-01T01:17:20;95521.06;;;9.23;63.78
20860;BME280;10590;48.154;11.514;2023-05-01T01:22:46;95506.38;;;9.34;63.76
20860;BME280;10590;48.154;11.514;2023-05-01T01:28:38;95510.75;;;9.39;64.06
20860;BME280;10590;48.154;11.514;2023-05-01T01:34:12;95498.81;;;9.19;64.55
20860;BME280;10590;48.154;11.514;2023-05-01T01:39:41;95495.97;;;9.15;65.48
20860;BME280;10590;48.154;11.514;2023-05-01T01:45:10;95494.50;;;9.01;65.90
20860;BME280;10590;48.154;11.514;2023-05-01T01:50:34;95492.13;;;8.90;66.20
20860;BME280;10590;48.154;11.514;2023-05-01T01:55:58;95488.06;;;8.93;66.15
20860;BME280;10590;48.154;11.514;2023-05-01T02:01:23;95468.94;;;8.82;66.29
20860;BME280;10590;48.154;11.514;2023-05-01T02:06:48;95467.69;;;8.57;67.70
20860;BME280;10590;48.154;11.514;2023-05-01T02:12:11;95465.88;;;8.67;67.37
20860;BME280;10590;48.154;11.514;2023-05-01T02:17:35;95468.50;;;8.58;68.05
20860;BME280;10590;48.154;11.514;2023-05-01T02:23:00;95469.84;;;8.47;68.40
20860;BME280;10590;48.154;11.514;2023-05-01T02:28:25;95461.94;;;8.33;69.56
20860;BME280;10590;48.154;11.514;2023-05-01T02:33:49;95460.47;;;8.27;69.83
20860;BME280;10590;48.154;11.514;2023-05-01T02:39:13;95450.09;;;8.39;69.61
20860;BME280;10590;48.154;11.514;2023-05-01T02:44:39;95435.22;;;8.38;68.94
20860;BME280;10590;48.154;11.514;2023-05-01T02:50:02;95430.91;;;8.51;68.67
20860;BME280;10590;48.154;11.514;2023-05-01T02:55:26;95433.56;;;7.97;70.14
20860;BME280;10590;48.154;11.514;2023-05-01T03:00:49;95434.69;;;8.05;70.92
20860;BME280;10590;48.154;11.514;2023-05-01T03:06:11;95431.75;;;7.84;71.64
20860;BME280;10590;48.154;11.514;2023-05-01T03:11:35;95432.38;;;7.67;73.08
20860;BME280;10590;48.154;11.514;2023-05-01T03:16:57;95434.78;;;7.55;73.72
20860;BME280;10590;48.154;11.514;2023-05-01T03:22:18;95425.13;;;7.59;72.66
20860;BME280;10590;48.154;11.514;2023-05-01T03:27:42;95418.00;;;7.46;73.29
20860;BME280;10590;48.154;11.514;2023-05-01T03:33:04;95424.72;;;7.30;74.23
20860;BME280;10590;48.154;11.514;2023-05-01T03:38:26;95428.91;;;6.81;76.59
20860;BME280;10590;48.154;11.514;2023-05-01T03:43:50;95417.91;;;7.01;75.69
20860;BME280;10590;48.154;11.514;2023-05-01T03:49:12;95422.78;;;7.58;73.66
20860;BME280;10590;48.154;11.514;2023-05-01T03:54:34;95419.25;;;7.85;73.13
20860;BME280;10590;48.154;11.514;2023-05-01T03:59:58;95413.75;;;7.81;73.00
20860;BME280;10590;48.154;11.514;2023-05-01T04:05:20;95411.34;;;7.35;74.68
20860;BME280;10590;48.154;11.514;2023-05-01T04:10:42;95400.03;;;7.65;73.89
20860;BME280;10590;48.154;11.514;2023-05-01T04:16:06;95414.06;;;8.02;72.85
20860;BME280;10590;48.154;11.514;2023-05-01T04:21:28;95412.72;;;7.91;72.96
20860;BME280;10590;48.154;11.514;2023-05-01T04:26:50;95407.78;;;7.98;72.98
20860;BME280;10590;48.154;11.514;2023-05-01T04:32:13;95413.44;;;8.05;72.45
20860;BME280;10590;48.154;11.514;2023-05-01T04:37:36;95410.19;;;8.08;72.40
20860;BME280;10590;48.154;11.514;2023-05-01T04:42:58;95408.56;;;8.29;71.54
20860;BME280;10590;48.154;11.514;2023-05-01T04:48:21;95403.72;;;8.54;70.31
20860;BME280;10590;48.154;11.514;2023-05-01T04:53:43;95410.41;;;8.82;70.10
20860;BME280;10590;48.154;11.514;2023-05-01T04:59:05;95404.22;;;9.13;69.06
20860;BME280;10590;48.154;11.514;2023-05-01T05:04:29;95408.00;;;9.29;68.32
20860;BME280;10590;48.154;11.514;2023-05-01T05:09:51;95404.66;;;9.06;67.45
20860;BME280;10590;48.154;11.514;2023-05-01T05:15:13;95413.53;;;8.84;68.34
20860;BME280;10590;48.154;11.514;2023-05-01T05:20:38;95418.81;;;9.33;66.80
20860;BME280;10590;48.154;11.514;2023-05-01T05:26:00;95415.84;;;9.95;64.12
20860;BME280;10590;48.154;11.514;2023-05-01T05:31:22;95424.00;;;9.98;62.93
20860;BME280;10590;48.154;11.514;2023-05-01T05:36:45;95417.41;;;10.21;62.82
20860;BME280;10590;48.154;11.514;2023-05-01T05:42:07;95419.75;;;10.78;60.45
20860;BME280;10590;48.154;11.514;2023-05-01T05:47:29;95423.31;;;10.53;60.49
20860;BME280;10590;48.154;11.514;2023-05-01T05:52:53;95421.38;;;10.62;60.04
20860;BME280;10590;48.154;11.514;2023-05-01T05:58:15;95425.66;;;10.93;59.20
20860;BME280;10590;48.154;11.514;2023-05-01T06:03:39;95424.44;;;10.35;61.20
20860;BME280;10590;48.154;11.514;2023-05-01T06:09:15;95421.59;;;10.87;59.33
20860;BME280;10590;48.154;11.514;2023-05-01T06:14:38;95420.59;;;11.00;59.07
20860;BME280;10590;48.154;11.514;2023-05-01T06:20:01;95419.16;;;10.73;58.60
20860;BME280;10590;48.154;11.514;2023-05-01T06:25:27;95417.50;;;10.89;59.44
20860;BME280;10590;48.154;11.514;2023-05-01T06:30:48;95415.16;;;11.17;58.55
20860;BME280;10590;48.154;11.514;2023-05-01T06:36:11;95419.28;;;10.04;59.83
20860;BME280;10590;48.154;11.514;2023-05-01T06:41:34;95416.91;;;11.13;58.49
20860;BME280;10590;48.154;11.514;2023-05-01T06:46:58;95412.13;;;10.98;58.74
20860;BME280;10590;48.154;11.514;2023-05-01T06:52:21;95422.88;;;10.42;59.99
20860;BME280;10590;48.154;11.514;2023-05-01T06:57:44;95429.75;;;11.20;58.97
20860;BME280;10590;48.154;11.514;2023-05-01T07:03:06;95412.44;;;12.09;55.90
20860;BME280;10590;48.154;11.514;2023-05-01T07:08:28;95428.97;;;11.48;57.63
20860;BME280;10590;48.154;11.514;2023-05-01T07:13:53;95429.09;;;10.93;59.33
20860;BME280;10590;48.154;11.514;2023-05-01T07:19:15;95433.47;;;11.57;58.99
20860;BME280;10590;48.154;11.514;2023-05-01T07:24:37;95422.25;;;11.63;59.03
20860;BME280;10590;48.154;11.514;2023-05-01T07:30:02;95421.91;;;12.06;60.00
20860;BME280;10590;48.154;11.514;2023-05-01T07:35:24;95428.25;;;12.23;61.75
20860;BME280;10590;48.154;11.514;2023-05-01T07:40:46;95427.56;;;12.26;58.15
20860;BME280;10590;48.154;11.514;2023-05-01T07:46:10;95431.91;;;12.18;59.86
20860;BME280;10590;48.154;11.514;2023-05-01T07:51:32;95433.22;;;12.57;57.74
20860;BME280;10590;48.154;11.514;2023-05-01T07:56:54;95441.06;;;12.87;56.75
20860;BME280;10590;48.154;11.514;2023-05-01T08:02:17;95442.59;;;12.63;56.31
20860;BME280;10590;48.154;11.514;2023-05-01T08:07:39;95447.03;;;12.47;58.30
20860;BME280;10590;48.154;11.514;2023-05-01T08:13:01;95451.13;;;12.32;57.92
20860;BME280;10590;48.154;11.514;2023-05-01T08:18:25;95450.34;;;12.11;58.60
20860;BME280;10590;48.154;11.514;2023-05-01T08:23:47;95449.44;;;12.07;59.14
20860;BME280;10590;48.154;11.514;2023-05-01T08:29:10;95461.53;;;11.92;60.09
20860;BME280;10590;48.154;11.514;2023-05-01T08:34:33;95461.97;;;11.94;59.92
20860;BME280;10590;48.154;11.514;2023-05-01T08:39:55;95463.00;;;12.02;60.69
20860;BME280;10590;48.154;11.514;2023-05-01T08:45:18;95466.97;;;11.75;61.43
20860;BME280;10590;48.154;11.514;2023-05-01T08:50:44;95467.13;;;11.78;62.40
20860;BME280;10590;48.154;11.514;2023-05-01T08:56:08;95468.84;;;11.54;63.71
20860;BME280;10590;48.154;11.514;2023-05-01T09:01:33;95476.47;;;11.43;65.77
20860;BME280;10590;48.154;11.514;2023-05-01T09:06:57;95480.31;;;11.25;68.67
20860;BME280;10590;48.154;11.514;2023-05-01T09:12:24;95485.22;;;10.76;72.08
20860;BME280;10590;48.154;11.514;2023-05-01T09:17:46;95493.59;;;10.57;74.32
20860;BME280;10590;48.154;11.514;2023-05-01T09:23:10;95495.81;;;10.29;76.44
20860;BME280;10590;48.154;11.514;2023-05-01T09:28:38;95499.75;;;10.40;78.33
20860;BME280;10590;48.154;11.514;2023-05-01T09:34:03;95498.97;;;10.23;78.79
20860;BME280;10590;48.154;11.514;2023-05-01T09:39:27;95501.13;;;10.12;80.20
20860;BME280;10590;48.154;11.514;2023-05-01T09:44:49;95504.75;;;9.99;80.66
20860;BME280;10590;48.154;11.514;2023-05-01T09:50:12;95517.41;;;9.58;81.61
20860;BME280;10590;48.154;11.514;2023-05-01T09:56:00;95514.47;;;9.77;81.80
20860;BME280;10590;48.154;11.514;2023-05-01T10:01:38;95519.47;;;9.70;82.09
20860;BME280;10590;48.154;11.514;2023-05-01T10:07:12;95518.38;;;9.80;82.78
20860;BME280;10590;48.154;11.514;2023-05-01T10:12:35;95517.75;;;9.83;81.43
20860;BME280;10590;48.154;11.514;2023-05-01T10:17:58;95517.44;;;9.67;80.97
20860;BME280;10590;48.154;11.514;2023-05-01T10:23:24;95509.28;;;9.98;80.49
20860;BME280;10590;48.154;11.514;2023-05-01T10:28:48;95528.09;;;9.76;81.26
20860;BME280;10590;48.154;11.514;2023-05-01T10:34:10;95528.09;;;9.93;81.18
20860;BME280;10590;48.154;11.514;2023-05-01T10:39:37;95520.75;;;9.90;81.37
20860;BME280;10590;48.154;11.514;2023-05-01T10:50:30;95503.50;;;10.13;82.08
20860;BME280;10590;48.154;11.514;2023-05-01T10:55:56;95500.81;;;9.96;83.82
20860;BME280;10590;48.154;11.514;2023-05-01T11:01:28;95498.31;;;10.08;83.24
20860;BME280;10590;48.154;11.514;2023-05-01T11:07:17;95491.09;;;10.09;82.88
20860;BME280;10590;48.154;11.514;2023-05-01T11:12:51;95488.91;;;10.54;81.55
20860;BME280;10590;48.154;11.514;2023-05-01T11:18:14;95479.56;;;10.77;81.49
20860;BME280;10590;48.154;11.514;2023-05-01T11:23:37;95471.97;;;10.50;83.10
20860;BME280;10590;48.154;11.514;2023-05-01T11:29:00;95486.22;;;10.63;82.85
20860;BME280;10590;48.154;11.514;2023-05-01T11:34:24;95475.22;;;10.64;82.26
20860;BME280;10590;48.154;11.514;2023-05-01T11:39:49;95471.16;;;10.58;82.11
20860;BME280;10590;48.154;11.514;2023-05-01T11:45:12;95470.25;;;10.45;83.94
20860;BME280;10590;48.154;11.514;2023-05-01T11:50:36;95476.94;;;11.07;82.84
20860;BME280;10590;48.154;11.514;2023-05-01T11:56:00;95478.75;;;11.24;81.17
20860;BME280;10590;48.154;11.514;2023-05-01T12:01:32;95473.78;;;11.93;78.82
20860;BME280;10590;48.154;11.514;2023-05-01T12:06:55;95473.59;;;12.19;78.80
20860;BME280;10590;48.154;11.514;2023-05-01T12:12:18;95474.69;;;12.18;76.93
20860;BME280;10590;48.154;11.514;2023-05-01T12:17:40;95487.22;;;11.85;77.77
20860;BME280;10590;48.154;11.514;2023-05-01T12:23:07;95476.63;;;11.67;78.68
20860;BME280;10590;48.154;11.514;2023-05-01T12:28:31;95483.94;;;12.00;76.87
20860;BME280;10590;48.154;11.514;2023-05-01T12:33:54;95473.66;;;11.90;77.20
20860;BME280;10590;48.154;11.514;2023-05-01T12:39:17;95473.47;;;12.49;77.30
20860;BME280;10590;48.154;11.514;2023-05-01T12:44:42;95471.75;;;12.89;74.59
20860;BME280;10590;48.154;11.514;2023-05-01T12:50:06;95483.38;;;12.93;75.53
20860;BME280;10590;48.154;11.514;2023-05-01T12:55:28;95475.78;;;12.83;75.69
20860;BME280;10590;48.154;11.514;2023-05-01T13:00:52;95478.06;;;12.60;74.70
20860;BME280;10590;48.154;11.514;2023-05-01T13:06:15;95481.91;;;12.84;75.87
20860;BME280;10590;48.154;11.514;2023-05-01T13:11:37;95474.41;;;13.22;74.53
20860;BME280;10590;48.154;11.514;2023-05-01T13:17:01;95477.13;;;14.27;70.20
20860;BME280;10590;48.154;11.514;2023-05-01T13:22:30;95476.03;;;13.88;68.82
20860;BME280;10590;48.154;11.514;2023-05-01T13:27:52;95460.63;;;14.13;69.75
20860;BME280;10590;48.154;11.514;2023-05-01T13:33:15;95465.78;;;14.46;67.85
20860;BME280;10590;48.154;11.514;2023-05-01T13:38:42;95473.75;;;14.30;67.67
20860;BME280;10590;48.154;11.514;2023-05-01T13:44:05;95475.22;;;14.27;68.16
20860;BME280;10590;48.154;11.514;2023-05-01T13:49:28;95472.03;;;13.57;69.30
20860;BME280;10590;48.154;11.514;2023-05-01T13:54:51;95469.50;;;13.24;69.34
20860;BME280;10590;48.154;11.514;2023-05-01T14:00:15;95467.44;;;13.70;69.47
20860;BME280;10590;48.154;11.514;2023-05-01T14:05:40;95463.75;;;13.62;68.84
20860;BME280;10590;48.154;11.514;2023-05-01T14:11:04;95460.97;;;13.59;68.85
20860;BME280;10590;48.154;11.514;2023-05-01T14:16:26;95459.81;;;13.84;68.48
20860;BME280;10590;48.154;11.514;2023-05-01T14:21:52;95458.38;;;13.75;70.10
20860;BME280;10590;48.154;11.514;2023-05-01T14:27:14;95451.69;;;14.09;68.01
20860;BME280;10590;48.154;11.514;2023-05-01T14:32:39;95464.34;;;14.64;66.94
20860;BME280;10590;48.154;11.514;2023-05-01T14:38:08;95458.22;;;15.11;64.67
20860;BME280;10590;48.154;11.514;2023-05-01T14:43:32;95458.94;;;14.48;66.66
20860;BME280;10590;48.154;11.514;2023-05-01T14:48:54;95467.56;;;15.48;62.89
20860;BME280;10590;48.154;11.514;2023-05-01T14:54:18;95464.22;;;14.45;64.21
20860;BME280;10590;48.154;11.514;2023-05-01T14:59:40;95461.25;;;13.94;65.70
20860;BME280;10590;48.154;11.514;2023-05-01T15:05:02;95475.56;;;13.86;66.42
20860;BME280;10590;48.154;11.514;2023-05-01T15:10:26;95471.69;;;13.59;65.99
20860;BME280;10590;48.154;11.514;2023-05-01T15:15:48;95478.03;;;13.79;66.51
20860;BME280;10590;48.154;11.514;2023-05-01T15:21:11;95481.78;;;13.37;66.54
20860;BME280;10590;48.154;11.514;2023-05-01T15:26:34;95484.00;;;13.35;67.63
20860;BME280;10590;48.154;11.514;2023-05-01T15:31:56;95480.63;;;13.63;68.18
20860;BME280;10590;48.154;11.514;2023-05-01T15:37:18;95491.94;;;13.44;68.08
20860;BME280;10590;48.154;11.514;2023-05-01T15:42:41;95485.22;;;13.50;67.97
20860;BME280;10590;48.154;11.514;2023-05-01T15:48:05;95488.34;;;13.28;68.66
20860;BME280;10590;48.154;11.514;2023-05-01T15:53:26;95487.28;;;12.96;71.26
20860;BME280;10590;48.154;11.514;2023-05-01T15:58:50;95487.13;;;13.50;70.26
20860;BME280;10590;48.154;11.514;2023-05-01T16:04:12;95486.09;;;13.05;71.73
20860;BME280;10590;48.154;11.514;2023-05-01T16:09:34;95486.94;;;12.85;73.31
20860;BME280;10590;48.154;11.514;2023-05-01T16:15:02;95490.56;;;12.68;75.05
20860;BME280;10590;48.154;11.514;2023-05-01T16:20:27;95494.91;;;12.28;75.12
20860;BME280;10590;48.154;11.514;2023-05-01T16:25:51;95490.34;;;12.07;76.68
20860;BME280;10590;48.154;11.514;2023-05-01T16:31:14;95492.69;;;11.88;76.97
20860;BME280;10590;48.154;11.514;2023-05-01T16:36:40;95506.59;;;11.73;78.83
20860;BME280;10590;48.154;11.514;2023-05-01T16:42:03;95500.19;;;11.44;81.52
20860;BME280;10590;48.154;11.514;2023-05-01T16:47:26;95505.91;;;11.34;83.65
20860;BME280;10590;48.154;11.514;2023-05-01T16:52:48;95510.00;;;11.23;84.21
20860;BME280;10590;48.154;11.514;2023-05-01T16:58:10;95508.06;;;11.41;84.98
20860;BME280;10590;48.154;11.514;2023-05-01T17:03:33;95511.09;;;11.31;85.16
20860;BME280;10590;48.154;11.514;2023-05-01T17:08:56;95527.53;;;11.41;85.02
20860;BME280;10590;48.154;11.514;2023-05-01T17:14:18;95527.28;;;11.26;85.77
20860;BME280;10590;48.154;11.514;2023-05-01T17:19:42;95532.00;;;11.29;86.50
20860;BME280;10590;48.154;11.514;2023-05-01T17:25:04;95538.59;;;11.23;86.24
20860;BME280;10590;48.154;11.514;2023-05-01T17:30:27;95538.53;;;11.02;87.46
20860;BME280;10590;48.154;11.514;2023-05-01T17:35:50;95540.06;;;11.11;86.61
20860;BME280;10590;48.154;11.514;2023-05-01T17:41:15;95546.66;;;11.14;87.32
20860;BME280;10590;48.154;11.514;2023-05-01T17:46:37;95550.25;;;11.18;87.46
20860;BME280;10590;48.154;11.514;2023-05-01T17:52:00;95552.72;;;11.32;87.58
20860;BME280;10590;48.154;11.514;2023-05-01T17:57:23;95555.41;;;11.32;87.37
20860;BME280;10590;48.154;11.514;2023-05-01T18:02:45;95567.19;;;11.22;87.85
20860;BME280;10590;48.154;11.514;2023-05-01T18:08:08;95570.78;;;11.26;87.22
20860;BME280;10590;48.154;11.514;2023-05-01T18:13:30;95571.31;;;11.11;88.00
20860;BME280;10590;48.154;11.514;2023-05-01T18:18:57;95572.09;;;11.11;88.59
20860;BME280;10590;48.154;11.514;2023-05-01T18:24:20;95587.06;;;11.04;88.82
20860;BME280;10590;48.154;11.514;2023-05-01T18:29:43;95591.28;;;11.05;89.07
20860;BME280;10590;48.154;11.514;2023-05-01T18:35:05;95600.22;;;11.09;88.91
20860;BME280;10590;48.154;11.514;2023-05-01T18:40:28;95605.13;;;10.98;89.04
20860;BME280;10590;48.154;11.514;2023-05-01T18:45:51;95604.19;;;10.94;89.73
20860;BME280;10590;48.154;11.514;2023-05-01T18:51:13;95606.88;;;10.85;89.75
20860;BME280;10590;48.154;11.514;2023-05-01T18:56:36;95623.84;;;10.81;89.99
20860;BME280;10590;48.154;11.514;2023-05-01T19:01:58;95624.47;;;10.69;90.06
20860;BME280;10590;48.154;11.514;2023-05-01T19:07:21;95636.41;;;10.63;89.98
20860;BME280;10590;48.154;11.514;2023-05-01T19:12:44;95647.72;;;10.60;90.12
20860;BME280;10590;48.154;11.514;2023-05-01T19:18:06;95637.84;;;10.61;90.43
20860;BME280;10590;48.154;11.514;2023-05-01T19:23:28;95635.78;;;10.49;90.25
20860;BME280;10590;48.154;11.514;2023-05-01T19:28:55;95644.25;;;10.51;90.26
20860;BME280;10590;48.154;11.514;2023-05-01T19:34:19;95639.41;;;10.44;90.65
20860;BME280;10590;48.154;11.514;2023-05-01T19:39:41;95649.72;;;10.37;90.67
20860;BME280;10590;48.154;11.514;2023-05-01T19:45:05;95647.84;;;10.29;90.87
20860;BME280;10590;48.154;11.514;2023-05-01T19:50:29;95646.09;;;10.33;90.39
20860;BME280;10590;48.154;11.514;2023-05-01T19:55:51;95655.03;;;10.29;90.24
20860;BME280;10590;48.154;11.514;2023-05-01T20:01:14;95666.66;;;10.24;90.16
20860;BME280;10590;48.154;11.514;2023-05-01T20:06:36;95658.59;;;10.15;90.71
20860;BME280;10590;48.154;11.514;2023-05-01T20:11:58;95666.75;;;10.10;90.08
20860;BME280;10590;48.154;11.514;2023-05-01T20:17:22;95678.66;;;10.04;90.57
20860;BME280;10590;48.154;11.514;2023-05-01T20:22:44;95684.78;;;10.05;90.29
20860;BME280;10590;48.154;11.514;2023-05-01T20:28:07;95683.31;;;9.90;89.58
20860;BME280;10590;48.154;11.514;2023-05-01T20:33:31;95690.34;;;9.86;89.51
20860;BME280;10590;48.154;11.514;2023-05-01T20:38:53;95689.09;;;9.83;89.62
20860;BME280;10590;48.154;11.514;2023-05-01T20:44:17;95697.53;;;9.77;89.57
20860;BME280;10590;48.154;11.514;2023-05-01T20:49:40;95695.66;;;9.77;90.27
20860;BME280;10590;48.154;11.514;2023-05-01T20:55:02;95695.97;;;9.76;90.48
20860;BME280;10590;48.154;11.514;2023-05-01T21:00:25;95697.19;;;9.70;90.54
20860;BME280;10590;48.154;11.514;2023-05-01T21:05:48;95704.72;;;9.68;90.48
20860;BME280;10590;48.154;11.514;2023-05-01T21:11:10;95709.88;;;9.64;90.77
20860;BME280;10590;48.154;11.514;2023-05-01T21:16:32;95712.69;;;9.68;90.92
20860;BME280;10590;48.154;11.514;2023-05-01T21:21:55;95713.50;;;9.68;90.89
20860;BME280;10590;48.154;11.514;2023-05-01T21:27:17;95721.78;;;9.67;90.79
20860;BME280;10590;48.154;11.514;2023-05-01T21:32:39;95715.66;;;9.66;90.51
20860;BME280;10590;48.154;11.514;2023-05-01T21:38:03;95721.16;;;9.70;90.38
20860;BME280;10590;48.154;11.514;2023-05-01T21:43:25;95716.09;;;9.60;90.70
20860;BME280;10590;48.154;11.514;2023-05-01T21:48:48;95716.81;;;9.51;91.20
20860;BME280;10590;48.154;11.514;2023-05-01T21:54:15;95728.09;;;9.48;90.84
20860;BME280;10590;48.154;11.514;2023-05-01T21:59:37;95735.91;;;9.45;91.23
20860;BME280;10590;48.154;11.514;2023-05-01T22:04:59;95730.94;;;9.52;91.02
20860;BME280;10590;48.154;11.514;2023-05-01T22:10:22;95740.31;;;9.49;91.13
20860;BME280;10590;48.154;11.514;2023-05-01T22:15:44;95736.75;;;9.54;90.83
20860;BME280;10590;48.154;11.514;2023-05-01T22:21:08;95741.28;;;9.53;90.75
20860;BME280;10590;48.154;11.514;2023-05-01T22:26:31;95750.75;;;9.60;90.74
20860;BME280;10590;48.154;11.514;2023-05-01T22:31:54;95746.31;;;9.55;90.53
20860;BME280;10590;48.154;11.514;2023-05-01T22:37:16;95747.91;;;9.56;90.66
20860;BME280;10590;48.154;11.514;2023-05-01T22:42:40;95760.53;;;9.50;90.94
20860;BME280;10590;48.154;11.514;2023-05-01T22:48:02;95758.16;;;9.49;90.68
20860;BME280;10590;48.154;11.514;2023-05-01T22:53:24;95757.50;;;9.43;90.58
20860;BME280;10590;48.154;11.514;2023-05-01T22:58:48;95755.63;;;9.44;90.57
20860;BME280;10590;48.154;11.514;2023-05-01T23:04:11;95761.25;;;9.42;90.58
20860;BME280;10590;48.154;11.514;2023-05-01T23:09:33;95763.94;;;9.42;90.86
20860;BME280;10590;48.154;11.514;2023-05-01T23:14:56;95769.06;;;9.39;90.59
20860;BME280;10590;48.154;11.514;2023-05-01T23:20:20;95760.28;;;9.38;90.34
20860;BME280;10590;48.154;11.514;2023-05-01T23:25:44;95757.28;;;9.31;90.55
20860;BME280;10590;48.154;11.514;2023-05-01T23:31:16;95748.50;;;9.31;90.36
20860;BME280;10590;48.154;11.514;2023-05-01T23:36:41;95757.34;;;9.40;90.11
20860;BME280;10590;48.154;11.514;2023-05-01T23:42:04;95754.66;;;9.40;90.17
20860;BME280;10590;48.154;11.514;2023-05-01T23:47:28;95755.41;;;9.32;90.16
20860;BME280;10590;48.154;11.514;2023-05-01T23:52:50;95757.47;;;9.35;90.23
20860;BME280;10590;48.154;11.514;2023-05-01T23:58:12;95754.63;;;9.31;90.44
